Time;durP1;ratioP1;P1;durP2;ratioP2;P2;SDS_P1;SDS_P2;PMS_P1;PMS_P2;Temp;Humidity;BMP_temperature;BMP_pressure;BME280_temperature;BME280_humidity;BME280_pressure;Samples;Min_cycle;Max_cycle;Signal;HPM_P1;HPM_P2
2023/10/22 00:00:44;;;;;;;1.70;1.07;;;9.50;99.90;;;;;;5088727;28;20279;-64
2023/10/22 00:03:10;;;;;;;2.23;1.37;;;9.50;99.90;;;;;;5090505;28;20308;-64
2023/10/22 00:05:36;;;;;;;2.40;1.20;;;9.50;99.90;;;;;;5085310;28;20988;-64
2023/10/22 00:08:01;;;;;;;2.77;1.30;;;9.60;99.90;;;;;;5089838;28;20213;-64
2023/10/22 00:10:27;;;;;;;6.10;1.23;;;9.60;99.90;;;;;;5089267;28;20197;-64
2023/10/22 00:12:53;;;;;;;2.23;1.27;;;9.60;99.90;;;;;;5087333;28;20191;-64
2023/10/22 00:15:20;;;;;;;3.13;1.67;;;9.70;99.90;;;;;;5088941;28;20185;-64
2023/10/22 00:17:48;;;;;;;2.10;1.10;;;10.30;99.90;;;;;;5089535;28;20430;-64
2023/10/22 00:20:14;;;;;;;1.83;1.10;;;9.70;99.90;;;;;;5088135;28;20426;-64
2023/10/22 00:22:39;;;;;;;1.70;0.97;;;9.70;99.90;;;;;;5086214;28;20512;-64
2023/10/22 00:25:06;;;;;;;1.20;0.60;;;9.70;99.90;;;;;;5086994;28;20636;-64
2023/10/22 00:27:32;;;;;;;2.10;1.00;;;9.70;99.90;;;;;;5089999;28;20188;-64
2023/10/22 00:29:58;;;;;;;2.03;0.90;;;9.70;99.90;;;;;;5089605;28;21012;-64
2023/10/22 00:32:25;;;;;;;1.90;0.80;;;9.80;99.90;;;;;;5087137;28;20439;-64
2023/10/22 00:34:50;;;;;;;1.40;0.70;;;9.80;99.90;;;;;;5088389;28;20437;-64
2023/10/22 00:37:16;;;;;;;4.90;1.33;;;9.80;99.90;;;;;;5089067;28;20422;-64
2023/10/22 00:39:42;;;;;;;3.73;0.97;;;9.80;99.90;;;;;;5064092;28;20224;-64
2023/10/22 00:42:08;;;;;;;2.30;1.10;;;10.60;99.90;;;;;;5067261;28;20258;-64
2023/10/22 00:44:35;;;;;;;2.30;1.00;;;9.90;99.90;;;;;;5066735;28;20423;-64
2023/10/22 00:47:03;;;;;;;1.80;1.00;;;9.80;99.90;;;;;;5068506;28;20434;-64
2023/10/22 00:49:28;;;;;;;2.43;1.30;;;9.80;99.90;;;;;;5066239;28;20455;-64
2023/10/22 00:51:55;;;;;;;1.53;0.67;;;10.30;99.90;;;;;;5066554;28;20446;-64
2023/10/22 00:54:24;;;;;;;1.77;1.10;;;10.50;99.90;;;;;;5066700;28;20192;-64
2023/10/22 00:56:51;;;;;;;1.60;0.80;;;10.60;99.90;;;;;;5065421;28;21361;-64
2023/10/22 00:59:17;;;;;;;2.50;1.20;;;9.80;99.90;;;;;;5067240;28;20430;-64
2023/10/22 01:01:42;;;;;;;1.60;0.90;;;9.80;99.90;;;;;;5065407;28;20467;-64
2023/10/22 01:04:08;;;;;;;3.40;1.17;;;9.70;99.90;;;;;;5067433;28;20427;-64
2023/10/22 01:06:36;;;;;;;3.67;1.10;;;9.70;99.90;;;;;;5067000;28;20289;-65
2023/10/22 01:09:02;;;;;;;1.60;0.90;;;9.70;99.90;;;;;;5064861;28;20460;-64
2023/10/22 01:11:27;;;;;;;1.97;1.20;;;9.70;99.90;;;;;;5064992;28;20557;-64
2023/10/22 01:13:53;;;;;;;2.87;1.10;;;9.70;99.90;;;;;;5066120;28;20890;-64
2023/10/22 01:16:19;;;;;;;2.87;1.20;;;9.80;99.90;;;;;;5066796;28;20259;-64
2023/10/22 01:18:44;;;;;;;2.10;1.03;;;10.40;99.90;;;;;;5064032;28;20223;-64
2023/10/22 01:21:11;;;;;;;1.60;1.00;;;9.80;99.90;;;;;;5067295;28;20220;-64
2023/10/22 01:23:37;;;;;;;2.67;1.00;;;9.80;99.90;;;;;;5065931;28;20181;-64
2023/10/22 01:26:06;;;;;;;1.60;0.87;;;9.80;99.90;;;;;;5067519;28;20458;-64
2023/10/22 01:28:33;;;;;;;2.13;1.17;;;9.70;99.90;;;;;;5067560;28;20426;-64
2023/10/22 01:30:58;;;;;;;4.33;1.20;;;9.60;99.90;;;;;;5065123;28;20866;-65
2023/10/22 01:33:24;;;;;;;3.40;0.97;;;9.50;99.90;;;;;;5067385;28;20516;-64
2023/10/22 01:35:50;;;;;;;1.53;0.77;;;9.40;99.90;;;;;;5065858;28;20184;-64
2023/10/22 01:38:16;;;;;;;2.13;1.07;;;10.30;99.90;;;;;;5073493;28;20320;-64
2023/10/22 01:40:42;;;;;;;1.77;1.00;;;9.30;99.90;;;;;;5084326;28;20867;-64
2023/10/22 01:43:07;;;;;;;2.80;1.40;;;9.30;99.90;;;;;;5088971;28;20176;-64
2023/10/22 01:45:33;;;;;;;2.17;0.97;;;9.20;99.90;;;;;;5086063;28;20742;-64
2023/10/22 01:47:58;;;;;;;1.47;0.87;;;9.30;99.90;;;;;;5088560;28;20218;-64
2023/10/22 01:50:24;;;;;;;3.10;1.23;;;9.20;99.90;;;;;;5084451;28;20192;-64
2023/10/22 01:52:50;;;;;;;1.63;0.80;;;9.20;99.90;;;;;;5066329;28;20573;-64
2023/10/22 01:55:15;;;;;;;2.90;1.13;;;9.20;99.90;;;;;;5084276;28;20324;-65
2023/10/22 01:57:41;;;;;;;1.73;1.00;;;9.20;99.90;;;;;;5083411;28;20191;-64
2023/10/22 02:00:10;;;;;;;1.93;1.07;;;9.20;99.90;;;;;;5086383;28;20200;-64
2023/10/22 02:02:36;;;;;;;1.60;1.00;;;9.30;99.90;;;;;;5067187;28;20218;-64
2023/10/22 02:05:03;;;;;;;2.63;1.23;;;9.40;99.90;;;;;;5085119;28;20430;-64
2023/10/22 02:07:29;;;;;;;1.80;1.03;;;9.40;99.90;;;;;;5083657;28;20176;-64
2023/10/22 02:09:55;;;;;;;1.73;1.10;;;9.50;99.90;;;;;;5082543;28;20456;-64
2023/10/22 02:12:30;;;;;;;3.07;0.80;;;9.30;99.90;;;;;;5086372;28;20304;-64
2023/10/22 02:14:56;;;;;;;3.40;1.20;;;9.30;99.90;;;;;;5084742;28;21465;-64
2023/10/22 02:17:22;;;;;;;3.00;1.10;;;9.30;99.90;;;;;;5085560;28;20438;-64
2023/10/22 02:19:47;;;;;;;4.23;1.97;;;9.20;99.90;;;;;;5083823;28;20430;-64
2023/10/22 02:22:13;;;;;;;3.47;1.30;;;9.30;99.90;;;;;;5084089;28;20208;-64
2023/10/22 02:24:42;;;;;;;2.33;1.60;;;9.20;99.90;;;;;;5085253;28;20640;-65
2023/10/22 02:27:07;;;;;;;2.27;1.20;;;9.20;99.90;;;;;;5088655;28;20184;-64
2023/10/22 02:29:33;;;;;;;3.63;1.47;;;9.20;99.90;;;;;;5086440;28;20428;-64
2023/10/22 02:31:59;;;;;;;3.40;1.80;;;9.10;99.90;;;;;;5083927;28;20183;-64
2023/10/22 02:34:25;;;;;;;3.17;1.20;;;10.00;99.90;;;;;;5087676;28;20234;-64
2023/10/22 02:36:51;;;;;;;2.80;1.47;;;9.10;99.90;;;;;;5086606;28;20463;-65
2023/10/22 02:39:16;;;;;;;3.00;1.07;;;9.80;99.90;;;;;;5082710;28;20299;-64
2023/10/22 02:41:44;;;;;;;2.00;1.13;;;9.10;99.90;;;;;;5085272;28;20281;-64
2023/10/22 02:44:10;;;;;;;4.03;1.60;;;9.70;99.90;;;;;;5089065;28;20207;-64
2023/10/22 02:46:35;;;;;;;2.90;1.47;;;9.10;99.90;;;;;;5087764;28;20965;-64
2023/10/22 02:49:01;;;;;;;2.67;1.90;;;9.10;99.90;;;;;;5089840;28;20189;-64
2023/10/22 02:51:27;;;;;;;2.70;1.40;;;9.60;99.90;;;;;;5088792;28;20191;-64
2023/10/22 02:53:52;;;;;;;2.57;1.20;;;9.10;99.90;;;;;;5092303;28;20185;-64
2023/10/22 02:56:18;;;;;;;4.40;1.00;;;9.00;99.90;;;;;;5088096;28;20180;-64
2023/10/22 02:58:44;;;;;;;1.83;1.00;;;9.00;99.90;;;;;;5091703;28;20790;-64
2023/10/22 03:01:10;;;;;;;2.93;1.30;;;8.90;99.90;;;;;;5090081;28;20211;-64
2023/10/22 03:03:40;;;;;;;2.50;1.30;;;8.90;99.90;;;;;;5091185;28;20273;-64
2023/10/22 03:06:14;;;;;;;1.90;1.20;;;8.90;99.90;;;;;;5086206;28;20433;-64
2023/10/22 03:08:41;;;;;;;3.40;1.30;;;9.00;99.90;;;;;;5091748;28;20457;-64
2023/10/22 03:11:15;;;;;;;2.20;1.47;;;8.80;99.90;;;;;;5087102;28;20422;-64
2023/10/22 03:13:41;;;;;;;2.50;1.53;;;9.40;99.90;;;;;;5084132;28;21290;-64
2023/10/22 03:16:12;;;;;;;2.47;1.40;;;8.70;99.90;;;;;;5083160;28;20448;-65
2023/10/22 03:18:40;;;;;;;6.17;2.03;;;8.80;99.90;;;;;;5084787;28;21477;-64
2023/10/22 03:21:19;;;;;;;3.50;1.10;;;8.80;99.90;;;;;;5083062;28;20639;-65
2023/10/22 03:23:46;;;;;;;4.17;1.67;;;8.80;99.90;;;;;;5083930;28;20422;-65
2023/10/22 03:26:14;;;;;;;2.23;1.43;;;8.70;99.90;;;;;;5083182;28;20430;-65
2023/10/22 03:28:40;;;;;;;3.00;1.43;;;8.80;99.90;;;;;;5085683;28;20516;-64
2023/10/22 03:31:07;;;;;;;4.13;1.50;;;8.90;99.90;;;;;;5083130;28;20437;-65
2023/10/22 03:33:33;;;;;;;5.03;1.40;;;8.80;99.90;;;;;;5084250;28;20428;-65
2023/10/22 03:36:00;;;;;;;4.53;1.80;;;8.80;99.90;;;;;;5083126;28;20457;-65
2023/10/22 03:38:26;;;;;;;4.60;1.30;;;8.90;99.90;;;;;;5084971;28;20233;-64
2023/10/22 03:41:05;;;;;;;2.33;1.70;;;9.00;99.90;;;;;;5083495;28;20528;-64
2023/10/22 03:43:31;;;;;;;10.10;1.70;;;8.90;99.90;;;;;;5089997;28;20176;-64
2023/10/22 03:45:58;;;;;;;5.07;1.90;;;8.90;99.90;;;;;;5088636;28;20770;-64
2023/10/22 03:48:25;;;;;;;4.57;2.13;;;9.00;99.90;;;;;;5087543;28;20437;-64
2023/10/22 03:50:51;;;;;;;2.13;1.43;;;9.00;99.90;;;;;;5087191;28;20437;-65
2023/10/22 03:53:17;;;;;;;3.30;1.83;;;10.10;99.90;;;;;;5088956;28;20435;-64
2023/10/22 03:55:42;;;;;;;2.50;1.40;;;9.00;99.90;;;;;;5090879;28;20191;-65
2023/10/22 03:58:08;;;;;;;5.43;1.50;;;9.00;99.90;;;;;;5087465;28;20309;-64
2023/10/22 04:00:34;;;;;;;11.43;2.00;;;9.10;99.90;;;;;;5088070;28;20189;-64
2023/10/22 04:03:01;;;;;;;3.70;1.60;;;9.00;99.90;;;;;;5087271;28;20235;-64
2023/10/22 04:05:26;;;;;;;1.87;1.20;;;9.00;99.90;;;;;;5086974;28;20189;-64
2023/10/22 04:07:52;;;;;;;1.70;1.07;;;9.10;99.90;;;;;;5087437;28;20449;-64
2023/10/22 04:10:18;;;;;;;5.33;2.20;;;9.50;99.90;;;;;;5086853;28;20185;-64
2023/10/22 04:12:44;;;;;;;4.53;1.90;;;9.70;99.90;;;;;;5087594;28;20442;-64
2023/10/22 04:15:10;;;;;;;3.80;2.03;;;9.10;99.90;;;;;;5086478;28;21220;-65
2023/10/22 04:17:36;;;;;;;4.70;1.70;;;9.10;99.90;;;;;;5089762;28;20839;-65
2023/10/22 04:20:02;;;;;;;2.23;1.63;;;8.90;99.90;;;;;;5088734;28;20427;-65
2023/10/22 04:22:28;;;;;;;3.03;2.00;;;8.90;99.90;;;;;;5087151;28;20200;-64
2023/10/22 04:24:53;;;;;;;2.33;1.50;;;10.10;99.90;;;;;;5086316;28;20442;-65
2023/10/22 04:27:19;;;;;;;6.80;1.83;;;8.80;99.90;;;;;;5087610;28;20547;-65
2023/10/22 04:29:46;;;;;;;1.80;1.20;;;8.90;99.90;;;;;;5088253;28;20184;-65
2023/10/22 04:32:15;;;;;;;3.00;1.70;;;8.80;99.90;;;;;;5087259;28;20184;-64
2023/10/22 04:34:40;;;;;;;2.17;1.30;;;8.70;99.90;;;;;;5088763;28;20434;-65
2023/10/22 04:37:07;;;;;;;2.90;1.60;;;8.70;99.90;;;;;;5086276;28;20427;-65
2023/10/22 04:39:33;;;;;;;3.77;1.80;;;8.60;99.90;;;;;;5088629;28;20224;-65
2023/10/22 04:41:58;;;;;;;5.00;1.63;;;8.50;99.90;;;;;;5087183;28;20468;-65
2023/10/22 04:44:24;;;;;;;2.17;1.33;;;8.50;99.90;;;;;;5087583;28;20191;-65
2023/10/22 04:46:51;;;;;;;4.10;1.57;;;8.40;99.90;;;;;;5089319;28;20184;-64
2023/10/22 04:49:16;;;;;;;2.37;1.27;;;9.30;99.90;;;;;;5089835;28;20275;-65
2023/10/22 04:51:42;;;;;;;2.17;1.30;;;8.50;99.90;;;;;;5087037;28;20951;-64
2023/10/22 04:54:08;;;;;;;3.33;1.63;;;8.50;99.90;;;;;;5087140;28;20188;-64
2023/10/22 04:56:34;;;;;;;3.67;1.20;;;8.60;99.90;;;;;;5087667;28;20223;-65
2023/10/22 04:59:00;;;;;;;1.50;0.90;;;8.60;99.90;;;;;;5073164;22;20240;-65
2023/10/22 05:01:25;;;;;;;3.03;1.70;;;8.70;99.90;;;;;;5048632;28;21728;-64
2023/10/22 05:03:51;;;;;;;2.63;1.40;;;8.50;99.90;;;;;;5049425;28;20191;-64
2023/10/22 05:06:16;;;;;;;2.97;1.17;;;8.60;99.90;;;;;;5049465;28;20210;-64
2023/10/22 05:08:42;;;;;;;2.53;1.37;;;8.60;99.90;;;;;;5048521;28;20182;-64
2023/10/22 05:11:15;;;;;;;2.50;1.13;;;8.60;99.90;;;;;;5049516;28;20296;-64
2023/10/22 05:13:41;;;;;;;3.00;1.30;;;8.60;99.90;;;;;;5048486;28;20189;-64
2023/10/22 05:16:07;;;;;;;8.00;1.97;;;8.70;99.90;;;;;;5049387;28;20550;-64
2023/10/22 05:18:33;;;;;;;5.87;0.90;;;8.60;99.90;;;;;;5048509;28;20424;-64
2023/10/22 05:21:04;;;;;;;2.90;1.00;;;8.70;99.90;;;;;;5048907;28;20380;-64
2023/10/22 05:23:30;;;;;;;2.37;0.97;;;8.80;99.90;;;;;;5049821;28;20208;-64
2023/10/22 05:26:12;;;;;;;3.20;1.07;;;8.80;99.90;;;;;;5049045;28;20443;-65
2023/10/22 05:28:41;;;;;;;1.87;0.80;;;8.80;99.90;;;;;;5049718;28;21776;-65
2023/10/22 05:31:20;;;;;;;10.23;1.20;;;8.90;99.90;;;;;;5046690;28;20511;-64
2023/10/22 05:33:46;;;;;;;1.77;0.70;;;8.80;99.90;;;;;;5037233;28;20482;-64
2023/10/22 05:36:21;;;;;;;2.37;1.20;;;8.70;99.90;;;;;;5037333;28;20443;-64
2023/10/22 05:38:47;;;;;;;8.60;0.97;;;8.70;99.90;;;;;;5026387;28;20435;-65
2023/10/22 05:41:21;;;;;;;5.53;1.27;;;8.70;99.90;;;;;;5026279;28;20459;-64
2023/10/22 05:43:48;;;;;;;2.00;0.73;;;8.60;99.90;;;;;;5022241;28;20435;-64
2023/10/22 05:46:13;;;;;;;4.60;0.90;;;8.60;99.90;;;;;;5017996;28;20447;-64
2023/10/22 05:48:39;;;;;;;1.70;0.83;;;8.70;99.90;;;;;;5013572;28;20509;-65
2023/10/22 05:51:05;;;;;;;1.47;0.70;;;8.70;99.90;;;;;;5008366;28;20184;-64
2023/10/22 05:53:30;;;;;;;2.77;1.20;;;10.00;99.90;;;;;;5005487;28;21530;-65
2023/10/22 05:55:59;;;;;;;3.93;0.80;;;8.70;99.90;;;;;;5009806;28;20300;-65
2023/10/22 05:58:25;;;;;;;4.13;1.50;;;8.60;99.90;;;;;;4997888;28;20235;-65
2023/10/22 06:00:51;;;;;;;2.20;0.80;;;8.60;99.90;;;;;;4997881;28;20789;-67
2023/10/22 06:03:17;;;;;;;4.30;1.63;;;8.60;99.90;;;;;;5016927;28;20471;-65
2023/10/22 06:05:44;;;;;;;12.50;0.90;;;8.60;99.90;;;;;;5012727;28;20472;-65
2023/10/22 06:08:10;;;;;;;13.30;0.90;;;8.60;99.90;;;;;;5024199;28;20189;-65
2023/10/22 06:10:42;;;;;;;3.50;1.33;;;8.60;99.90;;;;;;5026490;28;20911;-65
2023/10/22 06:13:08;;;;;;;3.27;0.87;;;9.80;99.90;;;;;;5030664;28;20200;-65
2023/10/22 06:15:38;;;;;;;1.47;0.80;;;9.00;99.90;;;;;;5037394;28;20437;-65
2023/10/22 06:18:05;;;;;;;2.17;0.70;;;8.50;99.90;;;;;;5036930;28;20181;-65
2023/10/22 06:20:31;;;;;;;1.80;0.73;;;8.60;99.90;;;;;;5044569;28;20466;-65
2023/10/22 06:22:57;;;;;;;1.20;0.60;;;9.80;99.90;;;;;;5045757;28;20479;-65
2023/10/22 06:25:24;;;;;;;3.33;1.53;;;8.60;99.90;;;;;;5046613;28;20420;-65
2023/10/22 06:27:50;;;;;;;5.87;1.27;;;8.60;99.90;;;;;;5052577;28;20470;-65
2023/10/22 06:30:21;;;;;;;1.60;0.90;;;8.50;99.90;;;;;;5051271;28;20436;-65
2023/10/22 06:32:54;;;;;;;1.67;0.90;;;8.50;99.90;;;;;;5053045;28;20428;-65
2023/10/22 06:35:20;;;;;;;9.93;0.83;;;8.50;99.90;;;;;;5053168;28;21581;-65
2023/10/22 06:37:52;;;;;;;1.97;0.97;;;9.50;99.90;;;;;;5051585;28;20486;-65
2023/10/22 06:40:18;;;;;;;2.17;0.70;;;8.50;99.90;;;;;;5051788;28;20196;-65
2023/10/22 06:42:44;;;;;;;1.47;0.67;;;8.60;99.90;;;;;;5097965;22;20504;-71
2023/10/22 06:45:09;;;;;;;7.53;1.00;;;8.60;99.90;;;;;;5091267;28;20449;-71
2023/10/22 06:47:36;;;;;;;2.10;0.97;;;8.60;99.90;;;;;;5095008;28;20210;-70
2023/10/22 06:50:09;;;;;;;6.53;1.07;;;8.60;99.90;;;;;;5092829;28;20176;-71
2023/10/22 06:52:35;;;;;;;7.30;1.80;;;8.70;99.90;;;;;;5077197;28;20471;-70
2023/10/22 06:55:02;;;;;;;2.30;1.20;;;8.70;99.90;;;;;;5083647;28;20430;-71
2023/10/22 06:57:28;;;;;;;3.30;1.37;;;8.70;99.90;;;;;;5085223;28;21001;-70
2023/10/22 06:59:56;;;;;;;1.70;1.00;;;8.70;99.90;;;;;;5083564;28;20942;-71
2023/10/22 07:02:23;;;;;;;2.60;0.80;;;8.80;99.90;;;;;;5085962;28;20454;-71
2023/10/22 07:04:52;;;;;;;3.97;1.30;;;8.90;99.90;;;;;;5086500;28;20517;-72
2023/10/22 07:07:18;;;;;;;3.27;1.30;;;8.90;99.90;;;;;;5083740;28;20427;-73
2023/10/22 07:09:44;;;;;;;2.00;1.00;;;9.00;99.90;;;;;;5084967;28;20478;-70
2023/10/22 07:12:09;;;;;;;1.70;0.77;;;9.10;99.90;;;;;;5087769;28;20674;-71
2023/10/22 07:14:35;;;;;;;4.50;1.00;;;9.20;99.90;;;;;;5087392;28;20176;-70
2023/10/22 07:17:01;;;;;;;2.03;0.90;;;9.30;99.90;;;;;;5089520;28;20189;-70
2023/10/22 07:19:26;;;;;;;1.80;0.90;;;9.30;99.90;;;;;;5091579;28;20192;-78
2023/10/22 07:21:52;;;;;;;3.40;1.30;;;9.40;99.90;;;;;;5112010;28;20200;-77
2023/10/22 07:24:18;;;;;;;6.00;1.03;;;9.60;99.90;;;;;;5111959;28;20228;-76
2023/10/22 07:26:43;;;;;;;6.63;1.67;;;9.70;99.90;;;;;;5113703;28;20180;-77
2023/10/22 07:29:09;;;;;;;3.10;1.00;;;9.80;99.90;;;;;;5113587;28;20164;-77
2023/10/22 07:31:34;;;;;;;14.97;1.47;;;10.00;99.90;;;;;;5095883;28;20291;-70
2023/10/22 07:34:00;;;;;;;1.90;0.93;;;10.20;99.90;;;;;;5086712;28;20185;-70
2023/10/22 07:36:26;;;;;;;8.53;1.03;;;10.40;99.90;;;;;;5086618;28;20707;-69
2023/10/22 07:38:53;;;;;;;1.20;0.60;;;10.60;99.90;;;;;;5085755;28;20196;-70
2023/10/22 07:41:19;;;;;;;3.40;1.47;;;10.80;99.90;;;;;;5085988;28;20466;-71
2023/10/22 07:43:46;;;;;;;2.77;0.90;;;11.00;99.90;;;;;;5086975;28;20468;-70
2023/10/22 07:46:15;;;;;;;1.40;0.73;;;11.40;99.90;;;;;;5087715;28;20525;-70
2023/10/22 07:48:42;;;;;;;4.53;1.13;;;11.50;99.90;;;;;;5088372;28;20442;-71
2023/10/22 07:51:15;;;;;;;4.10;0.90;;;11.60;99.90;;;;;;5082514;28;20824;-72
2023/10/22 07:53:42;;;;;;;7.37;1.03;;;11.90;99.90;;;;;;5081529;28;20460;-70
2023/10/22 07:56:09;;;;;;;3.40;0.70;;;12.00;99.90;;;;;;5085541;28;20935;-70
2023/10/22 07:58:36;;;;;;;2.57;0.93;;;12.30;99.90;;;;;;5084380;28;20426;-71
2023/10/22 08:01:03;;;;;;;3.57;1.43;;;12.50;99.90;;;;;;5082069;28;20746;-73
2023/10/22 08:03:29;;;;;;;4.23;0.87;;;12.70;99.90;;;;;;5083052;28;20434;-70
2023/10/22 08:05:55;;;;;;;3.90;0.90;;;13.00;99.90;;;;;;5065057;28;20443;-70
2023/10/22 08:08:22;;;;;;;5.67;1.40;;;13.20;99.90;;;;;;5080037;28;20449;-72
2023/10/22 08:10:47;;;;;;;2.40;0.83;;;13.50;99.90;;;;;;5063481;28;20456;-70
2023/10/22 08:13:13;;;;;;;3.53;1.07;;;13.70;99.90;;;;;;5063974;28;20445;-73
2023/10/22 08:15:39;;;;;;;3.40;0.80;;;13.90;99.90;;;;;;5081135;28;20196;-71
2023/10/22 08:18:04;;;;;;;1.57;0.70;;;14.10;99.90;;;;;;5079459;28;20626;-70
2023/10/22 08:20:32;;;;;;;3.43;0.90;;;14.70;99.90;;;;;;5078989;28;20219;-71
2023/10/22 08:22:58;;;;;;;1.80;0.63;;;15.00;98.80;;;;;;5081665;28;20282;-75
2023/10/22 08:25:23;;;;;;;8.83;1.00;;;15.10;97.90;;;;;;5081369;28;20456;-73
2023/10/22 08:27:49;;;;;;;2.80;0.80;;;15.00;98.50;;;;;;5080380;28;20662;-74
2023/10/22 08:30:15;;;;;;;5.93;1.00;;;14.90;98.80;;;;;;5062955;28;20180;-71
2023/10/22 08:32:47;;;;;;;3.00;1.07;;;14.70;98.90;;;;;;5082203;28;20215;-72
2023/10/22 08:35:13;;;;;;;7.00;1.00;;;14.90;98.10;;;;;;5075498;28;20656;-71
2023/10/22 08:37:40;;;;;;;3.97;1.00;;;14.90;97.80;;;;;;5077884;28;20487;-71
2023/10/22 08:40:11;;;;;;;3.00;0.70;;;15.00;98.70;;;;;;5076602;28;20438;-72
2023/10/22 08:42:37;;;;;;;2.93;1.13;;;14.90;98.30;;;;;;5056195;28;20485;-73
2023/10/22 08:45:04;;;;;;;6.40;0.87;;;14.90;98.40;;;;;;5075820;28;20443;-71
2023/10/22 08:47:30;;;;;;;3.67;0.60;;;15.00;98.20;;;;;;5078412;28;21008;-71
2023/10/22 08:49:56;;;;;;;1.77;1.03;;;14.40;98.90;;;;;;5077858;28;20439;-71
2023/10/22 08:52:23;;;;;;;3.10;1.37;;;14.60;99.10;;;;;;5078025;28;20989;-71
2023/10/22 08:54:49;;;;;;;1.97;0.80;;;14.10;99.20;;;;;;5079808;28;20430;-71
2023/10/22 08:57:15;;;;;;;5.03;1.10;;;13.90;99.50;;;;;;5079167;28;20437;-72
2023/10/22 08:59:43;;;;;;;4.20;1.23;;;13.70;99.90;;;;;;5078238;28;20183;-71
2023/10/22 09:02:11;;;;;;;7.87;1.20;;;13.60;99.90;;;;;;5076889;28;20466;-71
2023/10/22 09:04:40;;;;;;;2.23;0.80;;;13.30;99.90;;;;;;5079230;28;20861;-73
2023/10/22 09:07:05;;;;;;;1.90;0.87;;;13.10;99.90;;;;;;5081233;28;20437;-71
2023/10/22 09:09:37;;;;;;;2.73;0.90;;;13.00;99.90;;;;;;5081376;28;20430;-73
2023/10/22 09:12:03;;;;;;;2.50;1.10;;;12.90;99.90;;;;;;5080989;28;20208;-72
2023/10/22 09:14:30;;;;;;;8.87;0.80;;;12.70;99.90;;;;;;5081876;28;20438;-72
2023/10/22 09:16:56;;;;;;;5.57;1.10;;;12.70;99.90;;;;;;5080051;28;20466;-69
2023/10/22 09:19:36;;;;;;;1.83;0.80;;;12.80;99.90;;;;;;5083449;28;20943;-69
2023/10/22 09:22:02;;;;;;;3.53;0.70;;;12.70;99.90;;;;;;5080188;28;20990;-70
2023/10/22 09:24:28;;;;;;;1.70;0.67;;;12.70;99.90;;;;;;5083523;28;20843;-70
2023/10/22 09:26:54;;;;;;;1.30;0.60;;;12.70;99.90;;;;;;5063333;28;20965;-72
2023/10/22 09:29:20;;;;;;;5.90;1.27;;;12.80;99.90;;;;;;5060823;28;20188;-72
2023/10/22 09:31:53;;;;;;;3.40;0.97;;;12.80;99.90;;;;;;5082810;28;20474;-70
2023/10/22 09:34:26;;;;;;;3.20;1.33;;;12.90;99.90;;;;;;5063956;28;20606;-70
2023/10/22 09:36:53;;;;;;;6.93;1.10;;;12.90;99.90;;;;;;5082273;28;20430;-72
2023/10/22 09:39:33;;;;;;;4.57;0.83;;;12.90;99.90;;;;;;5064087;28;20443;-70
2023/10/22 09:42:00;;;;;;;2.80;1.17;;;13.00;99.90;;;;;;5082762;28;20561;-68
2023/10/22 09:44:29;;;;;;;3.03;0.90;;;13.10;99.90;;;;;;5082277;28;20470;-70
2023/10/22 09:46:55;;;;;;;2.03;1.07;;;13.20;99.90;;;;;;5083575;28;20422;-69
2023/10/22 09:49:22;;;;;;;10.40;1.23;;;13.30;99.90;;;;;;5081496;28;20500;-71
2023/10/22 09:51:50;;;;;;;1.73;0.80;;;13.50;99.90;;;;;;5084577;28;20204;-71
2023/10/22 09:54:19;;;;;;;14.63;1.10;;;13.60;99.90;;;;;;5087802;28;20422;-72
2023/10/22 09:56:51;;;;;;;3.80;0.83;;;13.70;99.40;;;;;;5088959;28;20818;-72
2023/10/22 09:59:20;;;;;;;2.23;1.20;;;13.40;99.50;;;;;;5083108;28;20466;-72
2023/10/22 10:01:45;;;;;;;6.40;1.57;;;13.30;99.70;;;;;;5083943;28;20477;-71
2023/10/22 10:04:13;;;;;;;1.97;0.77;;;13.30;99.90;;;;;;5065959;28;20427;-71
2023/10/22 10:06:40;;;;;;;3.60;0.80;;;13.20;99.90;;;;;;5083877;28;20418;-70
2023/10/22 10:09:06;;;;;;;2.37;0.83;;;13.10;99.90;;;;;;5066350;28;20426;-72
2023/10/22 10:11:33;;;;;;;2.17;0.87;;;13.10;99.80;;;;;;5085275;28;20450;-71
2023/10/22 10:14:30;;;;;;;4.13;0.83;;;13.10;99.80;;;;;;5084880;28;20469;-72
2023/10/22 10:17:00;;;;;;;3.23;0.67;;;13.30;99.90;;;;;;5083284;28;20855;-71
2023/10/22 10:19:26;;;;;;;1.57;0.67;;;13.50;99.90;;;;;;5082111;28;20434;-73
2023/10/22 10:21:53;;;;;;;4.40;0.80;;;13.60;99.90;;;;;;5065346;28;20842;-71
2023/10/22 10:24:28;;;;;;;2.20;0.93;;;13.80;98.80;;;;;;5083279;28;20188;-71
2023/10/22 10:26:56;;;;;;;4.80;1.33;;;13.70;98.70;;;;;;5063369;28;20437;-73
2023/10/22 10:29:27;;;;;;;4.80;1.20;;;13.80;98.60;;;;;;5080338;28;20448;-73
2023/10/22 10:32:15;;;;;;;1.30;0.50;;;13.80;98.50;;;;;;5081338;28;20451;-70
2023/10/22 10:34:50;;;;;;;2.27;0.70;;;13.80;98.80;;;;;;5082731;28;20906;-71
2023/10/22 10:37:20;;;;;;;2.33;0.87;;;13.70;98.80;;;;;;5083951;28;20468;-71
2023/10/22 10:39:53;;;;;;;3.93;1.10;;;13.60;98.50;;;;;;5080035;28;20438;-72
2023/10/22 10:42:31;;;;;;;4.73;0.90;;;13.70;98.80;;;;;;5083060;28;20554;-73
2023/10/22 10:45:00;;;;;;;3.30;1.00;;;13.70;98.70;;;;;;5082521;28;20477;-71
2023/10/22 10:47:29;;;;;;;1.43;0.60;;;13.70;99.00;;;;;;5083967;28;20796;-72
2023/10/22 10:50:23;;;;;;;1.87;1.30;;;13.80;98.60;;;;;;5083022;28;20434;-73
2023/10/22 10:52:49;;;;;;;2.47;0.80;;;13.80;98.90;;;;;;5039907;28;20974;-72
2023/10/22 10:55:17;;;;;;;2.97;1.10;;;13.80;97.70;;;;;;5081852;28;20437;-70
2023/10/22 10:57:45;;;;;;;9.33;0.97;;;13.80;98.00;;;;;;5068898;28;20561;-71
2023/10/22 11:00:21;;;;;;;1.20;0.50;;;13.90;98.60;;;;;;5068268;28;20442;-72
2023/10/22 11:02:52;;;;;;;4.40;1.00;;;14.10;98.50;;;;;;5085883;28;20457;-72
2023/10/22 11:05:40;;;;;;;2.57;1.10;;;14.20;98.10;;;;;;5087236;28;20984;-71
2023/10/22 11:08:19;;;;;;;4.47;1.10;;;14.10;98.20;;;;;;5098187;28;20422;-72
2023/10/22 11:10:47;;;;;;;4.83;0.87;;;14.00;97.90;;;;;;5095626;28;20825;-73
2023/10/22 11:13:13;;;;;;;1.90;0.73;;;14.00;98.10;;;;;;5103904;28;20422;-72
2023/10/22 11:15:40;;;;;;;2.77;0.80;;;14.20;98.30;;;;;;5099899;28;20931;-75
2023/10/22 11:18:10;;;;;;;11.70;1.00;;;14.60;96.00;;;;;;5096469;28;20433;-70
2023/10/22 11:20:37;;;;;;;2.57;0.80;;;14.70;96.40;;;;;;5093654;28;20437;-70
2023/10/22 11:23:03;;;;;;;5.30;1.20;;;14.90;95.40;;;;;;5094902;28;20470;-71
2023/10/22 11:25:31;;;;;;;2.73;1.20;;;14.90;95.40;;;;;;5088227;28;20787;-72
2023/10/22 11:27:56;;;;;;;5.10;1.13;;;14.80;95.80;;;;;;5086121;28;20498;-70
2023/10/22 11:30:33;;;;;;;2.13;1.17;;;14.70;95.70;;;;;;5086299;28;20443;-70
2023/10/22 11:32:59;;;;;;;1.83;0.97;;;14.50;95.60;;;;;;5088307;28;20185;-71
2023/10/22 11:35:32;;;;;;;2.23;0.67;;;14.40;95.80;;;;;;5090175;28;20427;-72
2023/10/22 11:37:59;;;;;;;1.40;0.60;;;14.30;95.90;;;;;;5088092;28;20563;-70
2023/10/22 11:40:33;;;;;;;2.37;0.73;;;14.10;96.00;;;;;;5086893;28;20450;-71
2023/10/22 11:43:06;;;;;;;2.93;0.70;;;14.00;97.20;;;;;;5084673;28;20478;-72
2023/10/22 11:45:36;;;;;;;2.80;0.90;;;14.10;96.70;;;;;;5068928;28;20419;-70
2023/10/22 11:48:19;;;;;;;17.37;1.47;;;14.30;96.40;;;;;;5088279;28;20488;-70
2023/10/22 11:50:49;;;;;;;10.37;0.97;;;14.50;96.60;;;;;;5088836;28;20457;-71
2023/10/22 11:53:19;;;;;;;6.50;0.90;;;14.90;96.60;;;;;;5087466;28;20476;-70
2023/10/22 11:55:47;;;;;;;7.60;1.00;;;15.10;96.10;;;;;;5089461;28;20437;-71
2023/10/22 11:58:20;;;;;;;3.20;0.60;;;15.20;95.60;;;;;;5089148;28;20460;-71
2023/10/22 12:00:47;;;;;;;1.90;0.90;;;15.30;95.20;;;;;;5073295;28;20470;-79
2023/10/22 12:03:13;;;;;;;2.00;0.90;;;15.50;94.80;;;;;;5112921;28;20454;-79
2023/10/22 12:05:39;;;;;;;3.67;0.60;;;15.80;95.10;;;;;;5110154;28;20432;-80
2023/10/22 12:08:04;;;;;;;7.90;1.17;;;16.10;94.50;;;;;;5115081;28;20431;-77
2023/10/22 12:10:30;;;;;;;2.37;1.00;;;16.00;94.20;;;;;;5113061;28;20265;-77
2023/10/22 12:12:55;;;;;;;5.67;0.87;;;16.00;94.00;;;;;;5091288;28;20704;-72
2023/10/22 12:15:21;;;;;;;2.07;0.73;;;16.10;94.00;;;;;;5086806;28;20168;-72
2023/10/22 12:17:46;;;;;;;2.03;0.90;;;16.10;94.10;;;;;;5085782;28;20181;-72
2023/10/22 12:20:12;;;;;;;1.97;0.80;;;16.30;93.00;;;;;;5086214;28;20180;-74
2023/10/22 12:22:38;;;;;;;3.03;0.90;;;16.30;93.10;;;;;;5086057;28;20220;-70
2023/10/22 12:25:04;;;;;;;4.60;0.80;;;16.30;93.20;;;;;;5083545;28;20188;-71
2023/10/22 12:27:31;;;;;;;9.03;1.53;;;16.30;94.10;;;;;;5087414;28;20193;-71
2023/10/22 12:29:58;;;;;;;3.40;1.10;;;16.50;93.80;;;;;;5067533;28;20419;-70
2023/10/22 12:32:23;;;;;;;2.87;0.57;;;16.50;93.30;;;;;;5083760;28;20486;-71
2023/10/22 12:34:49;;;;;;;5.17;1.13;;;16.70;93.50;;;;;;5085324;28;20881;-72
2023/10/22 12:37:14;;;;;;;3.70;1.20;;;16.70;93.40;;;;;;5085926;28;20599;-73
2023/10/22 12:39:42;;;;;;;6.30;1.33;;;16.90;93.10;;;;;;5085326;28;20255;-74
2023/10/22 12:42:08;;;;;;;2.03;0.60;;;17.00;91.80;;;;;;5086366;28;20583;-71
2023/10/22 12:44:34;;;;;;;1.60;0.70;;;16.90;92.10;;;;;;5069622;28;20979;-73
2023/10/22 12:47:00;;;;;;;2.03;0.70;;;16.70;92.20;;;;;;5088707;28;20433;-71
2023/10/22 12:49:25;;;;;;;1.67;0.83;;;16.80;91.70;;;;;;5071081;28;20184;-73
2023/10/22 12:51:51;;;;;;;2.70;0.90;;;16.60;91.30;;;;;;5089315;28;20240;-75
2023/10/22 12:54:17;;;;;;;1.60;0.60;;;16.50;91.60;;;;;;5087498;28;20180;-71